sensor_id;sensor_type;location;lat;lon;timestamp;P1;durP1;ratioP1;P2;durP2;ratioP2
63005;SDS011;53704;52.532;6.426;2023-07-08T00:00:47;12.73;;;4.68;;
63005;SDS011;53704;52.532;6.426;2023-07-08T00:03:16;13.32;;;6.05;;
63005;SDS011;53704;52.532;6.426;2023-07-08T00:05:42;5.90;;;4.85;;
63005;SDS011;53704;52.532;6.426;2023-07-08T00:08:11;7.35;;;4.72;;
63005;SDS011;53704;52.532;6.426;2023-07-08T00:10:38;5.45;;;4.32;;
63005;SDS011;53704;52.532;6.426;2023-07-08T00:13:04;8.23;;;4.22;;
63005;SDS011;53704;52.532;6.426;2023-07-08T00:15:30;8.73;;;4.53;;
63005;SDS011;53704;52.532;6.426;2023-07-08T00:18:00;5.05;;;4.47;;
63005;SDS011;53704;52.532;6.426;2023-07-08T00:20:33;5.90;;;4.50;;
63005;SDS011;53704;52.532;6.426;2023-07-08T00:23:02;5.78;;;4.63;;
63005;SDS011;53704;52.532;6.426;2023-07-08T00:25:28;12.43;;;4.70;;
63005;SDS011;53704;52.532;6.426;2023-07-08T00:27:55;6.57;;;4.93;;
63005;SDS011;53704;52.532;6.426;2023-07-08T00:30:21;8.68;;;4.65;;
63005;SDS011;53704;52.532;6.426;2023-07-08T00:32:48;8.82;;;4.70;;
63005;SDS011;53704;52.532;6.426;2023-07-08T00:35:34;9.95;;;5.05;;
63005;SDS011;53704;52.532;6.426;2023-07-08T00:38:10;11.93;;;4.63;;
63005;SDS011;53704;52.532;6.426;2023-07-08T00:43:41;7.72;;;4.97;;
63005;SDS011;53704;52.532;6.426;2023-07-08T00:46:17;10.30;;;5.18;;
63005;SDS011;53704;52.532;6.426;2023-07-08T00:48:50;5.53;;;5.05;;
63005;SDS011;53704;52.532;6.426;2023-07-08T00:51:19;15.18;;;4.85;;
63005;SDS011;53704;52.532;6.426;2023-07-08T00:53:46;7.03;;;5.38;;
63005;SDS011;53704;52.532;6.426;2023-07-08T00:56:13;5.32;;;4.82;;
63005;SDS011;53704;52.532;6.426;2023-07-08T00:58:44;7.05;;;4.75;;
63005;SDS011;53704;52.532;6.426;2023-07-08T01:01:14;8.27;;;5.32;;
63005;SDS011;53704;52.532;6.426;2023-07-08T01:03:45;7.82;;;5.45;;
63005;SDS011;53704;52.532;6.426;2023-07-08T01:06:18;9.45;;;4.93;;
63005;SDS011;53704;52.532;6.426;2023-07-08T01:08:46;7.32;;;5.07;;
63005;SDS011;53704;52.532;6.426;2023-07-08T01:11:17;8.77;;;5.07;;
63005;SDS011;53704;52.532;6.426;2023-07-08T01:13:46;5.68;;;5.10;;
63005;SDS011;53704;52.532;6.426;2023-07-08T01:16:15;12.63;;;5.70;;
63005;SDS011;53704;52.532;6.426;2023-07-08T01:18:41;8.63;;;5.10;;
63005;SDS011;53704;52.532;6.426;2023-07-08T01:21:27;12.35;;;5.28;;
63005;SDS011;53704;52.532;6.426;2023-07-08T01:23:52;8.15;;;5.65;;
63005;SDS011;53704;52.532;6.426;2023-07-08T01:26:18;18.65;;;5.20;;
63005;SDS011;53704;52.532;6.426;2023-07-08T01:28:43;6.13;;;5.45;;
63005;SDS011;53704;52.532;6.426;2023-07-08T01:31:10;11.40;;;5.95;;
63005;SDS011;53704;52.532;6.426;2023-07-08T01:33:35;12.00;;;5.25;;
63005;SDS011;53704;52.532;6.426;2023-07-08T01:36:01;9.52;;;4.80;;
63005;SDS011;53704;52.532;6.426;2023-07-08T01:38:27;8.80;;;5.05;;
63005;SDS011;53704;52.532;6.426;2023-07-08T01:40:55;5.35;;;4.95;;
63005;SDS011;53704;52.532;6.426;2023-07-08T01:43:22;8.70;;;5.22;;
63005;SDS011;53704;52.532;6.426;2023-07-08T01:45:47;7.43;;;4.95;;
63005;SDS011;53704;52.532;6.426;2023-07-08T01:48:17;5.70;;;4.88;;
63005;SDS011;53704;52.532;6.426;2023-07-08T01:50:46;7.70;;;4.97;;
63005;SDS011;53704;52.532;6.426;2023-07-08T01:53:21;9.07;;;4.55;;
63005;SDS011;53704;52.532;6.426;2023-07-08T01:55:54;8.38;;;5.57;;
63005;SDS011;53704;52.532;6.426;2023-07-08T01:58:19;6.30;;;5.00;;
63005;SDS011;53704;52.532;6.426;2023-07-08T02:00:45;8.13;;;5.65;;
63005;SDS011;53704;52.532;6.426;2023-07-08T02:03:13;6.57;;;4.68;;
63005;SDS011;53704;52.532;6.426;2023-07-08T02:05:39;5.57;;;5.00;;
63005;SDS011;53704;52.532;6.426;2023-07-08T02:08:04;7.30;;;5.82;;
63005;SDS011;53704;52.532;6.426;2023-07-08T02:10:30;6.25;;;5.65;;
63005;SDS011;53704;52.532;6.426;2023-07-08T02:12:55;7.65;;;5.93;;
63005;SDS011;53704;52.532;6.426;2023-07-08T02:15:21;6.85;;;6.03;;
63005;SDS011;53704;52.532;6.426;2023-07-08T02:17:46;6.70;;;5.53;;
63005;SDS011;53704;52.532;6.426;2023-07-08T02:20:11;6.80;;;5.35;;
63005;SDS011;53704;52.532;6.426;2023-07-08T02:22:37;6.07;;;4.85;;
63005;SDS011;53704;52.532;6.426;2023-07-08T02:25:05;7.95;;;5.35;;
63005;SDS011;53704;52.532;6.426;2023-07-08T02:27:31;11.15;;;5.60;;
63005;SDS011;53704;52.532;6.426;2023-07-08T02:29:56;12.32;;;6.32;;
63005;SDS011;53704;52.532;6.426;2023-07-08T02:32:21;16.77;;;5.55;;
63005;SDS011;53704;52.532;6.426;2023-07-08T02:34:47;8.48;;;5.82;;
63005;SDS011;53704;52.532;6.426;2023-07-08T02:37:12;7.70;;;5.97;;
63005;SDS011;53704;52.532;6.426;2023-07-08T02:39:37;7.63;;;6.00;;
63005;SDS011;53704;52.532;6.426;2023-07-08T02:42:03;9.50;;;6.00;;
63005;SDS011;53704;52.532;6.426;2023-07-08T02:44:29;8.93;;;6.65;;
63005;SDS011;53704;52.532;6.426;2023-07-08T02:46:54;7.03;;;6.32;;
63005;SDS011;53704;52.532;6.426;2023-07-08T02:49:19;10.57;;;5.55;;
63005;SDS011;53704;52.532;6.426;2023-07-08T02:51:45;8.18;;;6.72;;
63005;SDS011;53704;52.532;6.426;2023-07-08T02:54:10;10.40;;;6.15;;
63005;SDS011;53704;52.532;6.426;2023-07-08T02:56:36;12.25;;;5.97;;
63005;SDS011;53704;52.532;6.426;2023-07-08T02:59:01;7.43;;;6.13;;
63005;SDS011;53704;52.532;6.426;2023-07-08T03:01:26;10.88;;;6.28;;
63005;SDS011;53704;52.532;6.426;2023-07-08T03:03:52;10.30;;;7.95;;
63005;SDS011;53704;52.532;6.426;2023-07-08T03:06:21;6.38;;;5.78;;
63005;SDS011;53704;52.532;6.426;2023-07-08T03:08:47;17.52;;;5.93;;
63005;SDS011;53704;52.532;6.426;2023-07-08T03:11:13;8.00;;;5.80;;
63005;SDS011;53704;52.532;6.426;2023-07-08T03:13:38;10.50;;;5.95;;
63005;SDS011;53704;52.532;6.426;2023-07-08T03:16:03;7.43;;;5.97;;
63005;SDS011;53704;52.532;6.426;2023-07-08T03:18:38;11.73;;;6.75;;
63005;SDS011;53704;52.532;6.426;2023-07-08T03:21:11;7.15;;;6.20;;
63005;SDS011;53704;52.532;6.426;2023-07-08T03:23:38;9.27;;;5.82;;
63005;SDS011;53704;52.532;6.426;2023-07-08T03:26:03;11.13;;;6.75;;
63005;SDS011;53704;52.532;6.426;2023-07-08T03:28:29;12.32;;;6.22;;
63005;SDS011;53704;52.532;6.426;2023-07-08T03:30:54;6.88;;;6.18;;
63005;SDS011;53704;52.532;6.426;2023-07-08T03:33:20;6.13;;;5.63;;
63005;SDS011;53704;52.532;6.426;2023-07-08T03:35:45;9.10;;;6.40;;
63005;SDS011;53704;52.532;6.426;2023-07-08T03:38:11;8.00;;;6.18;;
63005;SDS011;53704;52.532;6.426;2023-07-08T03:40:36;17.02;;;6.60;;
63005;SDS011;53704;52.532;6.426;2023-07-08T03:43:02;6.85;;;6.13;;
63005;SDS011;53704;52.532;6.426;2023-07-08T03:45:27;9.05;;;6.63;;
63005;SDS011;53704;52.532;6.426;2023-07-08T03:47:53;6.47;;;5.82;;
63005;SDS011;53704;52.532;6.426;2023-07-08T03:50:23;7.78;;;6.20;;
63005;SDS011;53704;52.532;6.426;2023-07-08T03:52:51;6.50;;;5.88;;
63005;SDS011;53704;52.532;6.426;2023-07-08T03:55:19;6.50;;;6.10;;
63005;SDS011;53704;52.532;6.426;2023-07-08T03:57:45;7.45;;;6.25;;
63005;SDS011;53704;52.532;6.426;2023-07-08T04:00:11;10.90;;;6.63;;
63005;SDS011;53704;52.532;6.426;2023-07-08T04:02:38;8.95;;;6.00;;
63005;SDS011;53704;52.532;6.426;2023-07-08T04:05:04;10.90;;;6.47;;
63005;SDS011;53704;52.532;6.426;2023-07-08T04:07:31;11.23;;;6.15;;
63005;SDS011;53704;52.532;6.426;2023-07-08T04:09:57;8.73;;;6.30;;
63005;SDS011;53704;52.532;6.426;2023-07-08T04:12:22;6.95;;;6.30;;
63005;SDS011;53704;52.532;6.426;2023-07-08T04:14:48;8.15;;;5.93;;
63005;SDS011;53704;52.532;6.426;2023-07-08T04:17:13;8.85;;;6.47;;
63005;SDS011;53704;52.532;6.426;2023-07-08T04:19:39;12.75;;;6.03;;
63005;SDS011;53704;52.532;6.426;2023-07-08T04:22:04;7.35;;;5.82;;
63005;SDS011;53704;52.532;6.426;2023-07-08T04:24:31;13.93;;;6.72;;
63005;SDS011;53704;52.532;6.426;2023-07-08T04:26:57;8.27;;;6.80;;
63005;SDS011;53704;52.532;6.426;2023-07-08T04:29:23;7.28;;;6.15;;
63005;SDS011;53704;52.532;6.426;2023-07-08T04:31:49;6.32;;;5.72;;
63005;SDS011;53704;52.532;6.426;2023-07-08T04:34:15;18.60;;;6.45;;
63005;SDS011;53704;52.532;6.426;2023-07-08T04:36:41;7.88;;;5.97;;
63005;SDS011;53704;52.532;6.426;2023-07-08T04:39:08;7.43;;;6.22;;
63005;SDS011;53704;52.532;6.426;2023-07-08T04:41:35;6.68;;;5.95;;
63005;SDS011;53704;52.532;6.426;2023-07-08T04:44:06;6.55;;;5.68;;
63005;SDS011;53704;52.532;6.426;2023-07-08T04:46:34;7.68;;;5.80;;
63005;SDS011;53704;52.532;6.426;2023-07-08T04:49:04;9.40;;;5.65;;
63005;SDS011;53704;52.532;6.426;2023-07-08T04:51:31;6.32;;;5.72;;
63005;SDS011;53704;52.532;6.426;2023-07-08T04:53:57;9.45;;;6.30;;
63005;SDS011;53704;52.532;6.426;2023-07-08T04:56:24;5.78;;;5.32;;
63005;SDS011;53704;52.532;6.426;2023-07-08T04:59:00;8.77;;;5.07;;
63005;SDS011;53704;52.532;6.426;2023-07-08T05:01:26;7.95;;;5.63;;
63005;SDS011;53704;52.532;6.426;2023-07-08T05:03:52;10.52;;;6.95;;
63005;SDS011;53704;52.532;6.426;2023-07-08T05:06:17;5.78;;;5.28;;
63005;SDS011;53704;52.532;6.426;2023-07-08T05:08:43;11.35;;;5.38;;
63005;SDS011;53704;52.532;6.426;2023-07-08T05:11:08;7.75;;;5.28;;
63005;SDS011;53704;52.532;6.426;2023-07-08T05:13:34;7.95;;;5.97;;
63005;SDS011;53704;52.532;6.426;2023-07-08T05:15:59;8.95;;;5.68;;
63005;SDS011;53704;52.532;6.426;2023-07-08T05:18:24;8.55;;;5.65;;
63005;SDS011;53704;52.532;6.426;2023-07-08T05:20:51;6.95;;;5.43;;
63005;SDS011;53704;52.532;6.426;2023-07-08T05:23:17;10.27;;;5.28;;
63005;SDS011;53704;52.532;6.426;2023-07-08T05:25:42;7.38;;;5.03;;
63005;SDS011;53704;52.532;6.426;2023-07-08T05:28:08;11.00;;;6.05;;
63005;SDS011;53704;52.532;6.426;2023-07-08T05:30:35;5.82;;;5.32;;
63005;SDS011;53704;52.532;6.426;2023-07-08T05:33:00;6.15;;;5.53;;
63005;SDS011;53704;52.532;6.426;2023-07-08T05:35:26;6.47;;;5.22;;
63005;SDS011;53704;52.532;6.426;2023-07-08T05:37:51;5.18;;;4.68;;
63005;SDS011;53704;52.532;6.426;2023-07-08T05:40:17;6.35;;;5.43;;
63005;SDS011;53704;52.532;6.426;2023-07-08T05:42:42;9.60;;;4.57;;
63005;SDS011;53704;52.532;6.426;2023-07-08T05:45:08;7.93;;;4.88;;
63005;SDS011;53704;52.532;6.426;2023-07-08T05:47:35;5.60;;;5.10;;
63005;SDS011;53704;52.532;6.426;2023-07-08T05:50:01;5.75;;;5.30;;
63005;SDS011;53704;52.532;6.426;2023-07-08T05:52:27;10.82;;;5.30;;
63005;SDS011;53704;52.532;6.426;2023-07-08T05:54:52;6.00;;;5.40;;
63005;SDS011;53704;52.532;6.426;2023-07-08T05:57:18;5.95;;;4.93;;
63005;SDS011;53704;52.532;6.426;2023-07-08T05:59:43;6.40;;;4.88;;
63005;SDS011;53704;52.532;6.426;2023-07-08T06:02:10;6.30;;;5.75;;
63005;SDS011;53704;52.532;6.426;2023-07-08T06:04:37;9.48;;;5.75;;
63005;SDS011;53704;52.532;6.426;2023-07-08T06:07:02;5.57;;;4.72;;
63005;SDS011;53704;52.532;6.426;2023-07-08T06:09:28;5.45;;;5.05;;
63005;SDS011;53704;52.532;6.426;2023-07-08T06:11:53;5.82;;;5.22;;
63005;SDS011;53704;52.532;6.426;2023-07-08T06:14:19;5.20;;;4.80;;
63005;SDS011;53704;52.532;6.426;2023-07-08T06:16:45;5.85;;;4.78;;
63005;SDS011;53704;52.532;6.426;2023-07-08T06:19:11;7.63;;;4.40;;
63005;SDS011;53704;52.532;6.426;2023-07-08T06:21:36;9.88;;;4.32;;
63005;SDS011;53704;52.532;6.426;2023-07-08T06:24:02;5.00;;;4.60;;
63005;SDS011;53704;52.532;6.426;2023-07-08T06:26:28;5.50;;;5.00;;
63005;SDS011;53704;52.532;6.426;2023-07-08T06:28:53;7.40;;;4.95;;
63005;SDS011;53704;52.532;6.426;2023-07-08T06:31:19;5.93;;;4.97;;
63005;SDS011;53704;52.532;6.426;2023-07-08T06:33:44;5.75;;;4.97;;
63005;SDS011;53704;52.532;6.426;2023-07-08T06:36:09;18.40;;;5.32;;
63005;SDS011;53704;52.532;6.426;2023-07-08T06:38:35;5.53;;;4.68;;
63005;SDS011;53704;52.532;6.426;2023-07-08T06:41:00;11.05;;;4.68;;
63005;SDS011;53704;52.532;6.426;2023-07-08T06:43:26;7.22;;;5.07;;
63005;SDS011;53704;52.532;6.426;2023-07-08T06:45:51;9.48;;;4.90;;
63005;SDS011;53704;52.532;6.426;2023-07-08T06:48:17;6.15;;;4.25;;
63005;SDS011;53704;52.532;6.426;2023-07-08T06:50:46;5.10;;;4.70;;
63005;SDS011;53704;52.532;6.426;2023-07-08T06:53:14;5.03;;;4.00;;
63005;SDS011;53704;52.532;6.426;2023-07-08T06:55:40;5.25;;;4.55;;
63005;SDS011;53704;52.532;6.426;2023-07-08T06:58:05;13.32;;;4.63;;
63005;SDS011;53704;52.532;6.426;2023-07-08T07:00:31;4.30;;;4.00;;
63005;SDS011;53704;52.532;6.426;2023-07-08T07:02:56;8.88;;;4.30;;
63005;SDS011;53704;52.532;6.426;2023-07-08T07:05:22;5.43;;;4.25;;
63005;SDS011;53704;52.532;6.426;2023-07-08T07:07:50;6.95;;;4.78;;
63005;SDS011;53704;52.532;6.426;2023-07-08T07:10:17;5.38;;;4.03;;
63005;SDS011;53704;52.532;6.426;2023-07-08T07:12:44;6.30;;;4.72;;
63005;SDS011;53704;52.532;6.426;2023-07-08T07:15:09;4.03;;;3.70;;
63005;SDS011;53704;52.532;6.426;2023-07-08T07:17:35;7.95;;;3.88;;
63005;SDS011;53704;52.532;6.426;2023-07-08T07:20:01;5.03;;;4.10;;
63005;SDS011;53704;52.532;6.426;2023-07-08T07:22:28;11.88;;;3.70;;
63005;SDS011;53704;52.532;6.426;2023-07-08T07:24:53;5.50;;;3.55;;
63005;SDS011;53704;52.532;6.426;2023-07-08T07:27:20;8.70;;;4.30;;
63005;SDS011;53704;52.532;6.426;2023-07-08T07:29:49;7.57;;;4.43;;
63005;SDS011;53704;52.532;6.426;2023-07-08T07:32:17;6.15;;;3.83;;
63005;SDS011;53704;52.532;6.426;2023-07-08T07:34:47;8.57;;;4.43;;
63005;SDS011;53704;52.532;6.426;2023-07-08T07:37:14;9.30;;;3.42;;
63005;SDS011;53704;52.532;6.426;2023-07-08T07:39:41;3.85;;;3.53;;
63005;SDS011;53704;52.532;6.426;2023-07-08T07:42:07;7.88;;;3.72;;
63005;SDS011;53704;52.532;6.426;2023-07-08T07:44:34;13.82;;;3.78;;
63005;SDS011;53704;52.532;6.426;2023-07-08T07:47:01;7.20;;;3.92;;
63005;SDS011;53704;52.532;6.426;2023-07-08T07:49:27;3.80;;;3.42;;
63005;SDS011;53704;52.532;6.426;2023-07-08T07:51:53;6.07;;;3.70;;
63005;SDS011;53704;52.532;6.426;2023-07-08T07:54:18;6.88;;;3.30;;
63005;SDS011;53704;52.532;6.426;2023-07-08T07:56:43;4.55;;;3.33;;
63005;SDS011;53704;52.532;6.426;2023-07-08T07:59:09;12.23;;;3.40;;
63005;SDS011;53704;52.532;6.426;2023-07-08T08:01:39;5.93;;;3.35;;
63005;SDS011;53704;52.532;6.426;2023-07-08T08:04:06;7.32;;;3.10;;
63005;SDS011;53704;52.532;6.426;2023-07-08T08:06:31;4.00;;;3.63;;
63005;SDS011;53704;52.532;6.426;2023-07-08T08:08:57;5.15;;;3.58;;
63005;SDS011;53704;52.532;6.426;2023-07-08T08:11:22;4.22;;;3.83;;
63005;SDS011;53704;52.532;6.426;2023-07-08T08:13:50;6.65;;;3.53;;
63005;SDS011;53704;52.532;6.426;2023-07-08T08:16:16;4.90;;;3.33;;
63005;SDS011;53704;52.532;6.426;2023-07-08T08:18:41;9.10;;;3.38;;
63005;SDS011;53704;52.532;6.426;2023-07-08T08:21:07;3.30;;;3.08;;
63005;SDS011;53704;52.532;6.426;2023-07-08T08:23:32;5.43;;;3.20;;
63005;SDS011;53704;52.532;6.426;2023-07-08T08:25:57;3.88;;;3.42;;
63005;SDS011;53704;52.532;6.426;2023-07-08T08:28:24;13.10;;;3.05;;
63005;SDS011;53704;52.532;6.426;2023-07-08T08:30:49;3.65;;;3.35;;
63005;SDS011;53704;52.532;6.426;2023-07-08T08:33:16;8.93;;;3.10;;
63005;SDS011;53704;52.532;6.426;2023-07-08T08:35:43;14.40;;;3.40;;
63005;SDS011;53704;52.532;6.426;2023-07-08T08:38:09;5.90;;;3.70;;
63005;SDS011;53704;52.532;6.426;2023-07-08T08:40:35;6.00;;;3.50;;
63005;SDS011;53704;52.532;6.426;2023-07-08T08:43:11;3.60;;;3.30;;
63005;SDS011;53704;52.532;6.426;2023-07-08T08:46:06;12.50;;;3.25;;
63005;SDS011;53704;52.532;6.426;2023-07-08T08:52:02;13.10;;;3.53;;
63005;SDS011;53704;52.532;6.426;2023-07-08T08:54:27;3.42;;;3.13;;
63005;SDS011;53704;52.532;6.426;2023-07-08T08:57:05;4.95;;;3.03;;
63005;SDS011;53704;52.532;6.426;2023-07-08T09:02:23;10.30;;;3.58;;
63005;SDS011;53704;52.532;6.426;2023-07-08T09:04:50;15.90;;;3.70;;
63005;SDS011;53704;52.532;6.426;2023-07-08T09:07:16;3.33;;;2.90;;
63005;SDS011;53704;52.532;6.426;2023-07-08T09:09:53;5.43;;;2.95;;
63005;SDS011;53704;52.532;6.426;2023-07-08T09:12:27;6.88;;;3.42;;
63005;SDS011;53704;52.532;6.426;2023-07-08T09:14:56;5.38;;;3.50;;
63005;SDS011;53704;52.532;6.426;2023-07-08T09:19:49;6.20;;;3.55;;
63005;SDS011;53704;52.532;6.426;2023-07-08T09:27:57;12.80;;;3.92;;
63005;SDS011;53704;52.532;6.426;2023-07-08T09:30:23;7.28;;;3.28;;
63005;SDS011;53704;52.532;6.426;2023-07-08T09:32:54;16.52;;;3.25;;
63005;SDS011;53704;52.532;6.426;2023-07-08T09:35:24;11.98;;;3.70;;
63005;SDS011;53704;52.532;6.426;2023-07-08T09:37:53;6.15;;;3.60;;
63005;SDS011;53704;52.532;6.426;2023-07-08T09:40:20;4.72;;;3.40;;
63005;SDS011;53704;52.532;6.426;2023-07-08T09:42:52;4.45;;;3.35;;
63005;SDS011;53704;52.532;6.426;2023-07-08T09:45:21;4.93;;;3.90;;
63005;SDS011;53704;52.532;6.426;2023-07-08T09:47:52;4.45;;;3.42;;
63005;SDS011;53704;52.532;6.426;2023-07-08T09:50:24;10.20;;;3.75;;
63005;SDS011;53704;52.532;6.426;2023-07-08T09:52:55;10.82;;;4.28;;
63005;SDS011;53704;52.532;6.426;2023-07-08T09:55:22;13.27;;;4.00;;
63005;SDS011;53704;52.532;6.426;2023-07-08T09:57:49;5.53;;;3.67;;
63005;SDS011;53704;52.532;6.426;2023-07-08T10:00:18;7.50;;;3.35;;
63005;SDS011;53704;52.532;6.426;2023-07-08T10:02:55;6.88;;;4.10;;
63005;SDS011;53704;52.532;6.426;2023-07-08T10:05:22;4.05;;;3.85;;
63005;SDS011;53704;52.532;6.426;2023-07-08T10:07:52;6.05;;;3.75;;
63005;SDS011;53704;52.532;6.426;2023-07-08T10:10:28;10.63;;;3.75;;
63005;SDS011;53704;52.532;6.426;2023-07-08T10:13:04;8.30;;;3.58;;
63005;SDS011;53704;52.532;6.426;2023-07-08T10:15:42;9.48;;;4.32;;
63005;SDS011;53704;52.532;6.426;2023-07-08T10:18:15;9.48;;;4.68;;
63005;SDS011;53704;52.532;6.426;2023-07-08T10:26:28;8.13;;;4.50;;
63005;SDS011;53704;52.532;6.426;2023-07-08T10:31:31;7.13;;;3.90;;
63005;SDS011;53704;52.532;6.426;2023-07-08T10:36:51;8.63;;;4.88;;
63005;SDS011;53704;52.532;6.426;2023-07-08T10:42:23;12.50;;;4.43;;
63005;SDS011;53704;52.532;6.426;2023-07-08T10:45:10;15.52;;;5.22;;
63005;SDS011;53704;52.532;6.426;2023-07-08T10:53:46;10.10;;;4.45;;
63005;SDS011;53704;52.532;6.426;2023-07-08T11:07:05;6.03;;;4.20;;
63005;SDS011;53704;52.532;6.426;2023-07-08T11:09:46;5.60;;;5.10;;
63005;SDS011;53704;52.532;6.426;2023-07-08T11:12:21;5.90;;;4.60;;
63005;SDS011;53704;52.532;6.426;2023-07-08T11:14:55;7.53;;;4.53;;
63005;SDS011;53704;52.532;6.426;2023-07-08T11:17:29;7.20;;;5.05;;
63005;SDS011;53704;52.532;6.426;2023-07-08T11:20:03;6.40;;;4.90;;
63005;SDS011;53704;52.532;6.426;2023-07-08T11:22:46;6.00;;;4.82;;
63005;SDS011;53704;52.532;6.426;2023-07-08T11:25:19;7.90;;;4.47;;
63005;SDS011;53704;52.532;6.426;2023-07-08T11:27:48;6.05;;;4.68;;
63005;SDS011;53704;52.532;6.426;2023-07-08T11:30:20;10.38;;;5.07;;
63005;SDS011;53704;52.532;6.426;2023-07-08T11:32:52;10.57;;;4.85;;
63005;SDS011;53704;52.532;6.426;2023-07-08T11:35:35;14.10;;;4.32;;
63005;SDS011;53704;52.532;6.426;2023-07-08T11:38:05;5.35;;;4.70;;
63005;SDS011;53704;52.532;6.426;2023-07-08T11:40:38;11.07;;;5.55;;
63005;SDS011;53704;52.532;6.426;2023-07-08T11:43:16;6.20;;;5.07;;
63005;SDS011;53704;52.532;6.426;2023-07-08T11:45:42;4.63;;;4.22;;
63005;SDS011;53704;52.532;6.426;2023-07-08T11:50:40;6.00;;;4.95;;
63005;SDS011;53704;52.532;6.426;2023-07-08T11:53:08;7.70;;;4.50;;
63005;SDS011;53704;52.532;6.426;2023-07-08T11:58:25;5.15;;;4.75;;
63005;SDS011;53704;52.532;6.426;2023-07-08T12:01:14;11.20;;;5.20;;
63005;SDS011;53704;52.532;6.426;2023-07-08T12:09:12;9.63;;;5.43;;
63005;SDS011;53704;52.532;6.426;2023-07-08T12:11:40;9.15;;;4.53;;
63005;SDS011;53704;52.532;6.426;2023-07-08T12:14:10;11.50;;;5.00;;
63005;SDS011;53704;52.532;6.426;2023-07-08T12:16:35;5.13;;;4.65;;
63005;SDS011;53704;52.532;6.426;2023-07-08T12:19:01;8.30;;;5.15;;
63005;SDS011;53704;52.532;6.426;2023-07-08T12:21:30;14.07;;;4.97;;
63005;SDS011;53704;52.532;6.426;2023-07-08T12:24:02;6.80;;;5.70;;
63005;SDS011;53704;52.532;6.426;2023-07-08T12:26:29;8.60;;;4.72;;
63005;SDS011;53704;52.532;6.426;2023-07-08T12:28:56;8.43;;;5.13;;
63005;SDS011;53704;52.532;6.426;2023-07-08T12:31:22;8.45;;;4.78;;
63005;SDS011;53704;52.532;6.426;2023-07-08T12:33:48;8.45;;;4.97;;
63005;SDS011;53704;52.532;6.426;2023-07-08T12:38:44;12.68;;;4.93;;
63005;SDS011;53704;52.532;6.426;2023-07-08T12:41:12;7.47;;;5.07;;
63005;SDS011;53704;52.532;6.426;2023-07-08T12:43:49;9.30;;;5.10;;
63005;SDS011;53704;52.532;6.426;2023-07-08T12:46:16;5.50;;;5.00;;
63005;SDS011;53704;52.532;6.426;2023-07-08T12:48:43;6.03;;;5.50;;
63005;SDS011;53704;52.532;6.426;2023-07-08T12:51:10;6.22;;;4.47;;
63005;SDS011;53704;52.532;6.426;2023-07-08T12:53:38;7.53;;;5.30;;
63005;SDS011;53704;52.532;6.426;2023-07-08T12:56:04;6.30;;;5.50;;
63005;SDS011;53704;52.532;6.426;2023-07-08T12:58:31;10.80;;;4.68;;
63005;SDS011;53704;52.532;6.426;2023-07-08T13:01:00;5.10;;;4.70;;
63005;SDS011;53704;52.532;6.426;2023-07-08T13:03:29;8.25;;;4.85;;
63005;SDS011;53704;52.532;6.426;2023-07-08T14:02:48;7.22;;;6.03;;
63005;SDS011;53704;52.532;6.426;2023-07-08T14:05:14;8.60;;;6.15;;
63005;SDS011;53704;52.532;6.426;2023-07-08T14:07:45;9.82;;;5.85;;
63005;SDS011;53704;52.532;6.426;2023-07-08T14:10:12;10.73;;;5.55;;
63005;SDS011;53704;52.532;6.426;2023-07-08T14:12:38;6.72;;;5.72;;
63005;SDS011;53704;52.532;6.426;2023-07-08T14:15:04;6.90;;;5.75;;
63005;SDS011;53704;52.532;6.426;2023-07-08T14:17:29;5.70;;;5.30;;
63005;SDS011;53704;52.532;6.426;2023-07-08T14:19:57;7.63;;;6.03;;
63005;SDS011;53704;52.532;6.426;2023-07-08T14:22:26;15.27;;;5.95;;
63005;SDS011;53704;52.532;6.426;2023-07-08T14:24:55;6.72;;;6.10;;
63005;SDS011;53704;52.532;6.426;2023-07-08T14:27:23;9.90;;;6.03;;
63005;SDS011;53704;52.532;6.426;2023-07-08T14:29:49;8.77;;;6.53;;
63005;SDS011;53704;52.532;6.426;2023-07-08T14:32:18;9.05;;;5.60;;
63005;SDS011;53704;52.532;6.426;2023-07-08T14:34:52;10.05;;;5.60;;
63005;SDS011;53704;52.532;6.426;2023-07-08T14:37:19;6.90;;;5.60;;
63005;SDS011;53704;52.532;6.426;2023-07-08T14:39:46;10.88;;;5.90;;
63005;SDS011;53704;52.532;6.426;2023-07-08T14:42:12;11.77;;;6.03;;
63005;SDS011;53704;52.532;6.426;2023-07-08T14:44:40;6.10;;;5.43;;
63005;SDS011;53704;52.532;6.426;2023-07-08T14:47:17;8.65;;;6.05;;
63005;SDS011;53704;52.532;6.426;2023-07-08T14:49:44;9.98;;;6.25;;
63005;SDS011;53704;52.532;6.426;2023-07-08T14:52:10;7.55;;;6.68;;
63005;SDS011;53704;52.532;6.426;2023-07-08T14:54:35;10.68;;;5.35;;
63005;SDS011;53704;52.532;6.426;2023-07-08T14:57:01;6.68;;;6.03;;
63005;SDS011;53704;52.532;6.426;2023-07-08T14:59:30;6.97;;;5.43;;
63005;SDS011;53704;52.532;6.426;2023-07-08T15:01:57;9.38;;;6.55;;
63005;SDS011;53704;52.532;6.426;2023-07-08T15:04:24;8.23;;;6.03;;
63005;SDS011;53704;52.532;6.426;2023-07-08T15:06:50;12.55;;;5.88;;
63005;SDS011;53704;52.532;6.426;2023-07-08T15:09:18;9.98;;;5.65;;
63005;SDS011;53704;52.532;6.426;2023-07-08T15:11:44;6.30;;;5.70;;
63005;SDS011;53704;52.532;6.426;2023-07-08T15:14:22;8.70;;;5.80;;
63005;SDS011;53704;52.532;6.426;2023-07-08T15:16:51;12.73;;;5.95;;
63005;SDS011;53704;52.532;6.426;2023-07-08T15:19:18;6.38;;;5.60;;
63005;SDS011;53704;52.532;6.426;2023-07-08T15:21:44;8.30;;;5.90;;
63005;SDS011;53704;52.532;6.426;2023-07-08T15:24:11;13.27;;;6.03;;
63005;SDS011;53704;52.532;6.426;2023-07-08T15:26:42;7.25;;;5.55;;
63005;SDS011;53704;52.532;6.426;2023-07-08T15:29:14;8.73;;;5.57;;
63005;SDS011;53704;52.532;6.426;2023-07-08T15:31:41;10.48;;;6.35;;
63005;SDS011;53704;52.532;6.426;2023-07-08T15:34:16;8.40;;;6.22;;
63005;SDS011;53704;52.532;6.426;2023-07-08T15:36:43;6.93;;;5.75;;
63005;SDS011;53704;52.532;6.426;2023-07-08T15:39:10;6.85;;;6.18;;
63005;SDS011;53704;52.532;6.426;2023-07-08T15:41:36;9.75;;;6.40;;
63005;SDS011;53704;52.532;6.426;2023-07-08T15:44:04;14.25;;;6.35;;
63005;SDS011;53704;52.532;6.426;2023-07-08T15:46:34;8.25;;;5.38;;
63005;SDS011;53704;52.532;6.426;2023-07-08T15:49:01;18.90;;;5.45;;
63005;SDS011;53704;52.532;6.426;2023-07-08T15:51:37;13.57;;;5.97;;
63005;SDS011;53704;52.532;6.426;2023-07-08T15:54:03;6.30;;;5.80;;
63005;SDS011;53704;52.532;6.426;2023-07-08T15:56:28;8.80;;;5.57;;
63005;SDS011;53704;52.532;6.426;2023-07-08T15:58:53;10.50;;;5.85;;
63005;SDS011;53704;52.532;6.426;2023-07-08T16:01:20;8.65;;;5.35;;
63005;SDS011;53704;52.532;6.426;2023-07-08T16:03:48;11.60;;;6.15;;
63005;SDS011;53704;52.532;6.426;2023-07-08T16:06:14;7.03;;;5.57;;
63005;SDS011;53704;52.532;6.426;2023-07-08T16:08:41;12.25;;;5.75;;
63005;SDS011;53704;52.532;6.426;2023-07-08T16:11:13;6.45;;;5.78;;
63005;SDS011;53704;52.532;6.426;2023-07-08T16:13:41;9.52;;;6.15;;
63005;SDS011;53704;52.532;6.426;2023-07-08T16:16:10;5.68;;;5.28;;
63005;SDS011;53704;52.532;6.426;2023-07-08T16:18:37;5.80;;;5.38;;
63005;SDS011;53704;52.532;6.426;2023-07-08T16:21:03;10.60;;;6.80;;
63005;SDS011;53704;52.532;6.426;2023-07-08T16:23:29;12.80;;;6.35;;
63005;SDS011;53704;52.532;6.426;2023-07-08T16:25:54;9.13;;;5.90;;
63005;SDS011;53704;52.532;6.426;2023-07-08T16:28:38;6.47;;;6.00;;
63005;SDS011;53704;52.532;6.426;2023-07-08T16:31:18;12.45;;;5.78;;
63005;SDS011;53704;52.532;6.426;2023-07-08T16:33:46;8.38;;;5.60;;
63005;SDS011;53704;52.532;6.426;2023-07-08T16:36:24;11.63;;;5.97;;
63005;SDS011;53704;52.532;6.426;2023-07-08T16:38:51;8.32;;;5.80;;
63005;SDS011;53704;52.532;6.426;2023-07-08T16:41:18;11.68;;;5.93;;
63005;SDS011;53704;52.532;6.426;2023-07-08T16:43:45;8.52;;;5.50;;
63005;SDS011;53704;52.532;6.426;2023-07-08T16:46:12;8.43;;;5.60;;
63005;SDS011;53704;52.532;6.426;2023-07-08T16:48:42;5.75;;;5.28;;